IN-0066 weather

Madhubani Airport
Bihar, India

Public forecast

Using degrees Celsius for public forecast. Weather courtesy of forecast.io.

METAR (pilot weather report)

Closest report is Lok Nayak Jayaprakash Airport, 68.7 nm (127.2 km) SW. Retrieved 2019/01/20 02:30 UTC (22 seconds ago):

VEPT 200230Z 00000KT 0900 R25/1600 MIFG NSC 11/09 Q1018 NOSIG

TAF (pilot weather forecast)

Forecast is more than 12 hours old.

Closest forecast is Lok Nayak Jayaprakash Airport, 68.7 nm (127.2 km) SW. Retrieved 2019/01/19 00:36 UTC (1 day ago):

TAF VEPT 192300Z 2000/2106 00000KT 0800 FG MIFG NSC BECMG 2004/2006 28005KT 2000 FU HZ BECMG 2008/2010 3000 HZ BECMG 2014/2016 00000KT 1500 BR MIFG BECMG 2100/2102 0900 FG MIFG FEW018 BECMG 2104/2106 23005KT 2000 HZ FU